Berkshire, New York
Current Conditions -  °F | °C
As of 12:53 AM on Tuesday 21 Oct 2014 (Local Time) from KBGM Reporting Station
Overcast Overcast  
Wind Chill: 46°   Ceiling: 7000
Heat Index: 49°   Visibility: 10mi
Dew Point: 38°   Wind: 7mph
Humidity: 66%   Direction: 180°S
Pressure: 29.87"   Gusts: NA
Location:  42.3°N, 76.19°W
Report Text: KBGM 210453Z AUTO 18006KT 10SM BKN070 OVC085 09/03 A2987 RMK AO2 SLP119 T00940033 401060000
Loading
Personal Weather Stations






























Interactive Weather Map
Tropical Storm Tracking
New forecast layout! Learn more

10-Day Weather Forecast

Advertisements
Track Severe Weather on mobile